sensor_id;sensor_type;location;lat;lon;timestamp;pressure;altitude;pressure_sealevel;temperature;humidity
70684;BME280;58263;48.146;11.440;2023-09-18T00:00:37;95322.94;;;18.59;76.06
70684;BME280;58263;48.146;11.440;2023-09-18T00:03:02;95323.25;;;18.57;76.20
70684;BME280;58263;48.146;11.440;2023-09-18T00:05:28;95322.16;;;18.58;76.03
70684;BME280;58263;48.146;11.440;2023-09-18T00:07:53;95317.88;;;18.52;75.99
70684;BME280;58263;48.146;11.440;2023-09-18T00:10:19;95315.75;;;18.49;76.02
70684;BME280;58263;48.146;11.440;2023-09-18T00:12:44;95311.75;;;18.41;76.24
70684;BME280;58263;48.146;11.440;2023-09-18T00:15:09;95316.25;;;18.51;75.99
70684;BME280;58263;48.146;11.440;2023-09-18T00:17:35;95312.00;;;18.45;76.22
70684;BME280;58263;48.146;11.440;2023-09-18T00:20:01;95303.91;;;18.40;76.44
70684;BME280;58263;48.146;11.440;2023-09-18T00:22:30;95302.81;;;18.41;76.67
70684;BME280;58263;48.146;11.440;2023-09-18T00:24:56;95293.63;;;18.37;76.12
70684;BME280;58263;48.146;11.440;2023-09-18T00:27:21;95287.47;;;18.31;76.59
70684;BME280;58263;48.146;11.440;2023-09-18T00:29:46;95282.19;;;18.40;75.89
70684;BME280;58263;48.146;11.440;2023-09-18T00:32:12;95280.81;;;18.18;77.15
70684;BME280;58263;48.146;11.440;2023-09-18T00:34:37;95269.84;;;18.29;76.22
70684;BME280;58263;48.146;11.440;2023-09-18T00:37:02;95275.88;;;18.26;76.55
70684;BME280;58263;48.146;11.440;2023-09-18T00:39:28;95270.03;;;18.13;77.40
70684;BME280;58263;48.146;11.440;2023-09-18T00:41:53;95265.75;;;18.07;77.20
70684;BME280;58263;48.146;11.440;2023-09-18T00:44:23;95267.69;;;18.06;77.39
70684;BME280;58263;48.146;11.440;2023-09-18T00:46:49;95265.72;;;18.12;76.95
70684;BME280;58263;48.146;11.440;2023-09-18T00:49:15;95260.28;;;18.12;77.02
70684;BME280;58263;48.146;11.440;2023-09-18T00:51:41;95260.63;;;18.05;76.75
70684;BME280;58263;48.146;11.440;2023-09-18T00:54:07;95265.72;;;18.12;76.25
70684;BME280;58263;48.146;11.440;2023-09-18T00:56:34;95255.75;;;18.02;76.81
70684;BME280;58263;48.146;11.440;2023-09-18T00:59:00;95253.00;;;18.07;76.67
70684;BME280;58263;48.146;11.440;2023-09-18T01:01:28;95247.56;;;18.07;76.33
70684;BME280;58263;48.146;11.440;2023-09-18T01:03:55;95248.44;;;18.03;76.02
70684;BME280;58263;48.146;11.440;2023-09-18T01:06:21;95254.97;;;18.02;76.28
70684;BME280;58263;48.146;11.440;2023-09-18T01:08:47;95250.19;;;17.94;76.03
70684;BME280;58263;48.146;11.440;2023-09-18T01:11:31;95243.31;;;18.01;76.72
70684;BME280;58263;48.146;11.440;2023-09-18T01:16:57;95247.50;;;17.88;76.50
70684;BME280;58263;48.146;11.440;2023-09-18T01:19:55;95255.63;;;17.88;76.21
70684;BME280;58263;48.146;11.440;2023-09-18T01:22:20;95250.28;;;17.83;76.22
70684;BME280;58263;48.146;11.440;2023-09-18T01:24:48;95241.06;;;17.79;76.13
70684;BME280;58263;48.146;11.440;2023-09-18T01:27:15;95245.94;;;17.82;76.17
70684;BME280;58263;48.146;11.440;2023-09-18T01:29:47;95252.75;;;17.80;75.67
70684;BME280;58263;48.146;11.440;2023-09-18T01:32:13;95249.47;;;17.83;76.58
70684;BME280;58263;48.146;11.440;2023-09-18T01:34:53;95250.34;;;17.78;76.69
70684;BME280;58263;48.146;11.440;2023-09-18T01:37:21;95250.03;;;17.80;75.61
70684;BME280;58263;48.146;11.440;2023-09-18T01:39:49;95244.84;;;17.83;75.59
70684;BME280;58263;48.146;11.440;2023-09-18T01:42:14;95236.13;;;17.86;75.35
70684;BME280;58263;48.146;11.440;2023-09-18T01:44:41;95237.28;;;17.80;75.73
70684;BME280;58263;48.146;11.440;2023-09-18T01:47:08;95218.53;;;17.84;75.42
70684;BME280;58263;48.146;11.440;2023-09-18T01:49:38;95209.59;;;17.83;75.58
70684;BME280;58263;48.146;11.440;2023-09-18T01:52:05;95210.69;;;17.82;75.78
70684;BME280;58263;48.146;11.440;2023-09-18T01:54:31;95203.09;;;17.79;75.35
70684;BME280;58263;48.146;11.440;2023-09-18T01:57:00;95215.16;;;17.68;75.87
70684;BME280;58263;48.146;11.440;2023-09-18T01:59:25;95216.63;;;17.60;76.97
70684;BME280;58263;48.146;11.440;2023-09-18T02:01:52;95231.03;;;17.55;76.16
70684;BME280;58263;48.146;11.440;2023-09-18T02:04:17;95211.56;;;17.53;76.26
70684;BME280;58263;48.146;11.440;2023-09-18T02:06:44;95211.56;;;17.53;75.97
70684;BME280;58263;48.146;11.440;2023-09-18T02:09:10;95210.44;;;17.54;75.95
70684;BME280;58263;48.146;11.440;2023-09-18T02:11:37;95211.66;;;17.43;76.50
70684;BME280;58263;48.146;11.440;2023-09-18T02:14:03;95201.75;;;17.57;75.73
70684;BME280;58263;48.146;11.440;2023-09-18T02:16:29;95204.25;;;17.49;76.41
70684;BME280;58263;48.146;11.440;2023-09-18T02:18:54;95214.91;;;17.45;76.12
70684;BME280;58263;48.146;11.440;2023-09-18T02:21:21;95210.72;;;17.53;76.36
70684;BME280;58263;48.146;11.440;2023-09-18T02:23:49;95213.31;;;17.39;76.85
70684;BME280;58263;48.146;11.440;2023-09-18T02:26:15;95211.88;;;17.47;76.64
70684;BME280;58263;48.146;11.440;2023-09-18T02:28:40;95197.22;;;17.48;76.67
70684;BME280;58263;48.146;11.440;2023-09-18T02:31:06;95198.25;;;17.52;76.91
70684;BME280;58263;48.146;11.440;2023-09-18T02:33:31;95181.13;;;17.56;76.75
70684;BME280;58263;48.146;11.440;2023-09-18T02:35:56;95183.84;;;17.56;76.67
70684;BME280;58263;48.146;11.440;2023-09-18T02:38:22;95181.78;;;17.48;76.37
70684;BME280;58263;48.146;11.440;2023-09-18T02:40:47;95181.72;;;17.53;75.61
70684;BME280;58263;48.146;11.440;2023-09-18T02:43:13;95185.69;;;17.37;76.74
70684;BME280;58263;48.146;11.440;2023-09-18T02:45:39;95177.28;;;17.38;76.67
70684;BME280;58263;48.146;11.440;2023-09-18T02:48:05;95164.41;;;17.49;76.36
70684;BME280;58263;48.146;11.440;2023-09-18T02:50:30;95159.03;;;17.44;76.88
70684;BME280;58263;48.146;11.440;2023-09-18T02:52:55;95160.88;;;17.24;77.28
70684;BME280;58263;48.146;11.440;2023-09-18T02:55:21;95169.63;;;17.16;77.14
70684;BME280;58263;48.146;11.440;2023-09-18T02:57:46;95176.16;;;17.15;77.30
70684;BME280;58263;48.146;11.440;2023-09-18T03:00:12;95169.72;;;17.06;77.94
70684;BME280;58263;48.146;11.440;2023-09-18T03:02:37;95176.81;;;17.02;77.88
70684;BME280;58263;48.146;11.440;2023-09-18T03:05:03;95173.44;;;17.15;77.29
70684;BME280;58263;48.146;11.440;2023-09-18T03:07:29;95168.25;;;17.19;77.42
70684;BME280;58263;48.146;11.440;2023-09-18T03:09:55;95169.69;;;17.11;77.81
70684;BME280;58263;48.146;11.440;2023-09-18T03:12:20;95167.19;;;17.15;77.91
70684;BME280;58263;48.146;11.440;2023-09-18T03:14:47;95154.97;;;17.17;77.54
70684;BME280;58263;48.146;11.440;2023-09-18T03:17:12;95149.81;;;17.21;76.75
70684;BME280;58263;48.146;11.440;2023-09-18T03:19:38;95163.75;;;17.09;77.24
70684;BME280;58263;48.146;11.440;2023-09-18T03:22:03;95151.06;;;17.04;77.15
70684;BME280;58263;48.146;11.440;2023-09-18T03:24:28;95147.06;;;16.97;77.55
70684;BME280;58263;48.146;11.440;2023-09-18T03:26:54;95155.19;;;16.97;78.28
70684;BME280;58263;48.146;11.440;2023-09-18T03:29:19;95150.06;;;16.95;77.92
70684;BME280;58263;48.146;11.440;2023-09-18T03:31:44;95147.38;;;16.90;78.52
70684;BME280;58263;48.146;11.440;2023-09-18T03:34:09;95149.78;;;16.97;77.51
70684;BME280;58263;48.146;11.440;2023-09-18T03:36:35;95141.69;;;16.92;78.40
70684;BME280;58263;48.146;11.440;2023-09-18T03:39:01;95132.47;;;16.87;78.08
70684;BME280;58263;48.146;11.440;2023-09-18T03:41:27;95132.78;;;16.86;78.28
70684;BME280;58263;48.146;11.440;2023-09-18T03:43:52;95136.34;;;16.81;78.28
70684;BME280;58263;48.146;11.440;2023-09-18T03:46:17;95124.78;;;16.70;78.39
70684;BME280;58263;48.146;11.440;2023-09-18T03:48:42;95119.13;;;16.67;78.73
70684;BME280;58263;48.146;11.440;2023-09-18T03:51:08;95106.97;;;16.64;78.25
70684;BME280;58263;48.146;11.440;2023-09-18T03:53:34;95104.50;;;16.68;77.99
70684;BME280;58263;48.146;11.440;2023-09-18T03:56:00;95111.00;;;16.67;78.01
70684;BME280;58263;48.146;11.440;2023-09-18T03:58:25;95111.88;;;16.62;78.00
70684;BME280;58263;48.146;11.440;2023-09-18T04:00:50;95115.41;;;16.58;78.79
70684;BME280;58263;48.146;11.440;2023-09-18T04:03:16;95104.59;;;16.58;78.83
70684;BME280;58263;48.146;11.440;2023-09-18T04:05:42;95102.63;;;16.63;77.90
70684;BME280;58263;48.146;11.440;2023-09-18T04:08:07;95099.09;;;16.68;77.53
70684;BME280;58263;48.146;11.440;2023-09-18T04:10:32;95091.00;;;16.63;77.94
70684;BME280;58263;48.146;11.440;2023-09-18T04:12:58;95080.50;;;16.56;78.15
70684;BME280;58263;48.146;11.440;2023-09-18T04:15:23;95085.63;;;16.58;77.85
70684;BME280;58263;48.146;11.440;2023-09-18T04:17:48;95086.81;;;16.46;78.59
70684;BME280;58263;48.146;11.440;2023-09-18T04:20:14;95087.94;;;16.40;78.74
70684;BME280;58263;48.146;11.440;2023-09-18T04:22:45;95083.34;;;16.41;78.38
70684;BME280;58263;48.146;11.440;2023-09-18T04:25:11;95087.56;;;16.22;78.80
70684;BME280;58263;48.146;11.440;2023-09-18T04:27:36;95080.06;;;16.14;79.55
70684;BME280;58263;48.146;11.440;2023-09-18T04:30:02;95080.53;;;16.21;78.54
70684;BME280;58263;48.146;11.440;2023-09-18T04:32:28;95081.63;;;16.20;78.40
70684;BME280;58263;48.146;11.440;2023-09-18T04:34:54;95080.66;;;16.06;79.47
70684;BME280;58263;48.146;11.440;2023-09-18T04:37:19;95082.28;;;16.02;79.34
70684;BME280;58263;48.146;11.440;2023-09-18T04:39:45;95080.88;;;16.10;79.10
70684;BME280;58263;48.146;11.440;2023-09-18T04:42:10;95086.88;;;16.07;78.71
70684;BME280;58263;48.146;11.440;2023-09-18T04:44:35;95096.63;;;16.02;79.78
70684;BME280;58263;48.146;11.440;2023-09-18T04:47:00;95094.25;;;15.91;80.36
70684;BME280;58263;48.146;11.440;2023-09-18T04:49:26;95100.25;;;15.87;79.79
70684;BME280;58263;48.146;11.440;2023-09-18T04:51:51;95105.84;;;15.96;79.75
70684;BME280;58263;48.146;11.440;2023-09-18T04:54:17;95090.16;;;15.98;79.60
70684;BME280;58263;48.146;11.440;2023-09-18T04:56:42;95089.88;;;16.00;79.86
70684;BME280;58263;48.146;11.440;2023-09-18T04:59:07;95089.88;;;16.00;80.01
70684;BME280;58263;48.146;11.440;2023-09-18T05:01:33;95099.09;;;15.99;80.03
70684;BME280;58263;48.146;11.440;2023-09-18T05:03:58;95093.16;;;15.97;79.69
70684;BME280;58263;48.146;11.440;2023-09-18T05:06:23;95104.00;;;15.92;79.86
70684;BME280;58263;48.146;11.440;2023-09-18T05:08:49;95104.56;;;15.88;80.18
70684;BME280;58263;48.146;11.440;2023-09-18T05:11:15;95109.41;;;15.92;80.85
70684;BME280;58263;48.146;11.440;2023-09-18T05:13:40;95110.47;;;15.96;80.34
70684;BME280;58263;48.146;11.440;2023-09-18T05:16:05;95116.38;;;16.03;80.25
70684;BME280;58263;48.146;11.440;2023-09-18T05:18:31;95116.94;;;16.00;80.31
70684;BME280;58263;48.146;11.440;2023-09-18T05:20:56;95118.53;;;16.06;81.06
70684;BME280;58263;48.146;11.440;2023-09-18T05:23:21;95107.72;;;16.06;80.64
70684;BME280;58263;48.146;11.440;2023-09-18T05:25:46;95113.38;;;16.04;81.08
70684;BME280;58263;48.146;11.440;2023-09-18T05:28:12;95101.69;;;16.14;80.67
70684;BME280;58263;48.146;11.440;2023-09-18T05:30:37;95103.84;;;16.17;80.98
70684;BME280;58263;48.146;11.440;2023-09-18T05:33:06;95109.69;;;16.30;80.82
70684;BME280;58263;48.146;11.440;2023-09-18T05:35:34;95123.53;;;16.23;80.94
70684;BME280;58263;48.146;11.440;2023-09-18T05:38:02;95123.50;;;16.28;80.69
70684;BME280;58263;48.146;11.440;2023-09-18T05:40:27;95121.00;;;16.37;79.99
70684;BME280;58263;48.146;11.440;2023-09-18T05:42:54;95121.47;;;16.44;80.41
70684;BME280;58263;48.146;11.440;2023-09-18T05:45:19;95117.84;;;16.59;80.38
70684;BME280;58263;48.146;11.440;2023-09-18T05:47:46;95108.53;;;16.70;80.06
70684;BME280;58263;48.146;11.440;2023-09-18T05:50:12;95100.25;;;16.86;80.48
70684;BME280;58263;48.146;11.440;2023-09-18T05:52:40;95091.84;;;16.93;79.90
70684;BME280;58263;48.146;11.440;2023-09-18T05:55:06;95087.63;;;17.05;78.42
70684;BME280;58263;48.146;11.440;2023-09-18T05:57:32;95085.34;;;17.18;77.64
70684;BME280;58263;48.146;11.440;2023-09-18T05:59:57;95090.97;;;17.21;78.95
70684;BME280;58263;48.146;11.440;2023-09-18T06:02:23;95088.78;;;17.23;79.24
70684;BME280;58263;48.146;11.440;2023-09-18T06:04:59;95100.09;;;17.31;78.95
70684;BME280;58263;48.146;11.440;2023-09-18T06:07:29;95100.25;;;17.39;78.30
70684;BME280;58263;48.146;11.440;2023-09-18T06:09:55;95107.81;;;17.43;77.71
70684;BME280;58263;48.146;11.440;2023-09-18T06:12:21;95111.22;;;17.53;77.21
70684;BME280;58263;48.146;11.440;2023-09-18T06:14:46;95119.72;;;17.66;77.63
70684;BME280;58263;48.146;11.440;2023-09-18T06:17:13;95123.38;;;17.75;78.36
70684;BME280;58263;48.146;11.440;2023-09-18T06:19:39;95119.28;;;17.78;77.71
70684;BME280;58263;48.146;11.440;2023-09-18T06:22:05;95114.53;;;17.88;77.68
70684;BME280;58263;48.146;11.440;2023-09-18T06:24:30;95118.53;;;17.96;77.23
70684;BME280;58263;48.146;11.440;2023-09-18T06:26:55;95111.66;;;18.04;77.21
70684;BME280;58263;48.146;11.440;2023-09-18T06:29:21;95115.22;;;18.18;76.31
70684;BME280;58263;48.146;11.440;2023-09-18T06:31:46;95116.06;;;18.19;76.34
70684;BME280;58263;48.146;11.440;2023-09-18T06:34:11;95126.38;;;18.36;75.96
70684;BME280;58263;48.146;11.440;2023-09-18T06:36:37;95120.56;;;18.42;75.84
70684;BME280;58263;48.146;11.440;2023-09-18T06:39:02;95120.91;;;18.55;75.28
70684;BME280;58263;48.146;11.440;2023-09-18T06:41:28;95120.53;;;18.62;74.22
70684;BME280;58263;48.146;11.440;2023-09-18T06:43:53;95120.19;;;18.82;74.20
70684;BME280;58263;48.146;11.440;2023-09-18T06:46:18;95124.50;;;19.02;73.63
70684;BME280;58263;48.146;11.440;2023-09-18T06:48:44;95122.31;;;19.18;72.87
70684;BME280;58263;48.146;11.440;2023-09-18T06:51:10;95127.13;;;19.35;73.39
70684;BME280;58263;48.146;11.440;2023-09-18T06:53:36;95134.19;;;19.36;73.20
70684;BME280;58263;48.146;11.440;2023-09-18T06:56:01;95138.41;;;19.42;73.07
70684;BME280;58263;48.146;11.440;2023-09-18T06:58:27;95130.25;;;19.42;72.57
70684;BME280;58263;48.146;11.440;2023-09-18T07:00:52;95132.78;;;19.67;71.83
70684;BME280;58263;48.146;11.440;2023-09-18T07:03:17;95143.34;;;19.82;71.42
70684;BME280;58263;48.146;11.440;2023-09-18T07:05:43;95172.91;;;20.03;71.36
70684;BME280;58263;48.146;11.440;2023-09-18T07:08:08;95179.47;;;20.24;70.62
70684;BME280;58263;48.146;11.440;2023-09-18T07:10:37;95195.47;;;20.54;70.01
70684;BME280;58263;48.146;11.440;2023-09-18T07:13:02;95199.41;;;20.84;69.05
70684;BME280;58263;48.146;11.440;2023-09-18T07:15:28;95194.16;;;21.10;69.26
70684;BME280;58263;48.146;11.440;2023-09-18T07:17:53;95181.63;;;21.41;67.83
70684;BME280;58263;48.146;11.440;2023-09-18T07:20:18;95193.13;;;21.60;66.75
70684;BME280;58263;48.146;11.440;2023-09-18T07:22:46;95198.03;;;21.81;65.92
70684;BME280;58263;48.146;11.440;2023-09-18T07:25:12;95198.84;;;21.82;65.05
70684;BME280;58263;48.146;11.440;2023-09-18T07:27:37;95191.31;;;21.87;64.23
70684;BME280;58263;48.146;11.440;2023-09-18T07:30:05;95187.75;;;21.87;64.14
70684;BME280;58263;48.146;11.440;2023-09-18T07:32:31;95188.47;;;22.01;64.12
70684;BME280;58263;48.146;11.440;2023-09-18T07:34:57;95193.50;;;22.25;63.74
70684;BME280;58263;48.146;11.440;2023-09-18T07:37:22;95200.59;;;22.44;62.67
70684;BME280;58263;48.146;11.440;2023-09-18T07:39:49;95195.63;;;22.55;62.87
70684;BME280;58263;48.146;11.440;2023-09-18T07:42:14;95200.63;;;22.79;62.92
70684;BME280;58263;48.146;11.440;2023-09-18T07:44:39;95196.94;;;22.92;62.18
70684;BME280;58263;48.146;11.440;2023-09-18T07:47:05;95187.59;;;23.11;61.56
70684;BME280;58263;48.146;11.440;2023-09-18T07:49:30;95192.25;;;23.19;60.35
70684;BME280;58263;48.146;11.440;2023-09-18T07:51:56;95187.22;;;23.39;60.49
70684;BME280;58263;48.146;11.440;2023-09-18T07:54:21;95183.94;;;23.54;59.93
70684;BME280;58263;48.146;11.440;2023-09-18T07:56:46;95192.94;;;23.63;59.42
70684;BME280;58263;48.146;11.440;2023-09-18T07:59:12;95204.44;;;23.87;59.51
70684;BME280;58263;48.146;11.440;2023-09-18T08:01:39;95211.84;;;23.86;59.14
70684;BME280;58263;48.146;11.440;2023-09-18T08:04:05;95216.22;;;23.78;58.09
70684;BME280;58263;48.146;11.440;2023-09-18T08:06:31;95216.19;;;23.87;57.49
70684;BME280;58263;48.146;11.440;2023-09-18T08:08:56;95222.63;;;24.00;58.83
70684;BME280;58263;48.146;11.440;2023-09-18T08:11:21;95220.53;;;23.97;57.54
70684;BME280;58263;48.146;11.440;2023-09-18T08:13:46;95221.66;;;23.87;58.08
70684;BME280;58263;48.146;11.440;2023-09-18T08:16:12;95235.56;;;23.82;58.18
70684;BME280;58263;48.146;11.440;2023-09-18T08:18:39;95241.16;;;23.86;59.54
70684;BME280;58263;48.146;11.440;2023-09-18T08:21:07;95237.16;;;23.83;58.47
70684;BME280;58263;48.146;11.440;2023-09-18T08:23:34;95232.03;;;23.73;58.29
70684;BME280;58263;48.146;11.440;2023-09-18T08:26:00;95240.75;;;23.66;58.22
70684;BME280;58263;48.146;11.440;2023-09-18T08:28:26;95246.59;;;23.47;58.93
70684;BME280;58263;48.146;11.440;2023-09-18T08:30:51;95248.34;;;23.60;59.63
70684;BME280;58263;48.146;11.440;2023-09-18T08:33:17;95259.78;;;23.62;58.78
70684;BME280;58263;48.146;11.440;2023-09-18T08:35:42;95264.78;;;23.52;59.27
70684;BME280;58263;48.146;11.440;2023-09-18T08:38:09;95266.41;;;23.53;57.91
70684;BME280;58263;48.146;11.440;2023-09-18T08:40:34;95271.09;;;23.52;58.28
70684;BME280;58263;48.146;11.440;2023-09-18T08:43:03;95267.38;;;23.48;58.35
70684;BME280;58263;48.146;11.440;2023-09-18T08:45:40;95270.28;;;23.43;58.20
70684;BME280;58263;48.146;11.440;2023-09-18T08:48:08;95275.75;;;23.43;58.43
70684;BME280;58263;48.146;11.440;2023-09-18T08:50:34;95279.47;;;23.47;58.76
70684;BME280;58263;48.146;11.440;2023-09-18T08:53:00;95274.50;;;23.32;58.66
70684;BME280;58263;48.146;11.440;2023-09-18T08:55:27;95274.63;;;23.35;59.04
70684;BME280;58263;48.146;11.440;2023-09-18T08:57:53;95277.72;;;23.25;59.22
70684;BME280;58263;48.146;11.440;2023-09-18T09:00:19;95282.72;;;23.32;59.58
70684;BME280;58263;48.146;11.440;2023-09-18T09:02:44;95285.94;;;23.16;59.11
70684;BME280;58263;48.146;11.440;2023-09-18T09:05:10;95294.63;;;23.18;59.98
70684;BME280;58263;48.146;11.440;2023-09-18T09:07:36;95298.97;;;23.19;60.05
70684;BME280;58263;48.146;11.440;2023-09-18T09:10:01;95294.44;;;23.06;59.50
70684;BME280;58263;48.146;11.440;2023-09-18T09:12:52;95298.94;;;23.10;59.41
70684;BME280;58263;48.146;11.440;2023-09-18T09:15:22;95291.22;;;22.95;59.45
70684;BME280;58263;48.146;11.440;2023-09-18T09:17:49;95291.34;;;22.99;59.37
70684;BME280;58263;48.146;11.440;2023-09-18T09:20:15;95291.06;;;23.09;59.83
70684;BME280;58263;48.146;11.440;2023-09-18T09:22:41;95284.47;;;23.19;59.93
70684;BME280;58263;48.146;11.440;2023-09-18T09:25:30;95285.44;;;23.23;59.07
70684;BME280;58263;48.146;11.440;2023-09-18T09:28:03;95274.81;;;23.30;59.27
70684;BME280;58263;48.146;11.440;2023-09-18T09:30:30;95273.53;;;23.36;58.06
70684;BME280;58263;48.146;11.440;2023-09-18T09:32:57;95286.53;;;23.39;57.42
70684;BME280;58263;48.146;11.440;2023-09-18T09:35:25;95296.34;;;23.49;58.42
70684;BME280;58263;48.146;11.440;2023-09-18T09:38:01;95296.69;;;23.56;57.99
70684;BME280;58263;48.146;11.440;2023-09-18T09:40:28;95297.94;;;23.68;58.42
70684;BME280;58263;48.146;11.440;2023-09-18T09:42:55;95301.47;;;23.68;58.48
70684;BME280;58263;48.146;11.440;2023-09-18T09:45:29;95300.97;;;23.75;58.54
70684;BME280;58263;48.146;11.440;2023-09-18T09:47:56;95303.41;;;23.76;58.62
70684;BME280;58263;48.146;11.440;2023-09-18T09:50:22;95292.25;;;23.82;57.70
70684;BME280;58263;48.146;11.440;2023-09-18T09:52:51;95301.91;;;23.88;56.70
70684;BME280;58263;48.146;11.440;2023-09-18T09:55:22;95305.47;;;23.88;57.29
70684;BME280;58263;48.146;11.440;2023-09-18T09:57:57;95306.91;;;23.86;57.01
70684;BME280;58263;48.146;11.440;2023-09-18T10:00:34;95305.16;;;23.99;57.67
70684;BME280;58263;48.146;11.440;2023-09-18T10:03:17;95307.84;;;24.07;57.05
70684;BME280;58263;48.146;11.440;2023-09-18T10:05:44;95302.00;;;24.18;57.21
70684;BME280;58263;48.146;11.440;2023-09-18T10:08:12;95309.50;;;24.29;57.04
70684;BME280;58263;48.146;11.440;2023-09-18T10:10:46;95312.47;;;24.24;55.40
70684;BME280;58263;48.146;11.440;2023-09-18T10:13:17;95305.66;;;24.30;56.41
70684;BME280;58263;48.146;11.440;2023-09-18T10:15:44;95308.88;;;24.33;56.50
70684;BME280;58263;48.146;11.440;2023-09-18T10:18:19;95315.16;;;24.33;55.60
70684;BME280;58263;48.146;11.440;2023-09-18T10:20:51;95308.50;;;24.43;57.02
70684;BME280;58263;48.146;11.440;2023-09-18T10:23:27;95319.19;;;24.36;55.49
70684;BME280;58263;48.146;11.440;2023-09-18T10:25:57;95312.91;;;24.35;55.27
70684;BME280;58263;48.146;11.440;2023-09-18T10:28:25;95311.78;;;24.27;54.69
70684;BME280;58263;48.146;11.440;2023-09-18T10:30:52;95311.84;;;24.19;55.22
70684;BME280;58263;48.146;11.440;2023-09-18T10:33:19;95318.41;;;24.26;54.60
70684;BME280;58263;48.146;11.440;2023-09-18T10:35:45;95319.53;;;24.25;54.66
70684;BME280;58263;48.146;11.440;2023-09-18T10:38:14;95322.91;;;24.31;55.68
70684;BME280;58263;48.146;11.440;2023-09-18T10:40:40;95324.16;;;24.34;55.69
70684;BME280;58263;48.146;11.440;2023-09-18T10:43:06;95327.84;;;24.38;54.91
70684;BME280;58263;48.146;11.440;2023-09-18T10:45:35;95323.22;;;24.29;55.43
70684;BME280;58263;48.146;11.440;2023-09-18T10:48:01;95324.22;;;24.25;55.02
70684;BME280;58263;48.146;11.440;2023-09-18T10:50:29;95326.97;;;24.25;55.90
70684;BME280;58263;48.146;11.440;2023-09-18T10:52:57;95327.63;;;24.13;55.66
70684;BME280;58263;48.146;11.440;2023-09-18T10:55:22;95325.56;;;24.19;55.51
70684;BME280;58263;48.146;11.440;2023-09-18T10:57:54;95327.56;;;24.30;56.11
70684;BME280;58263;48.146;11.440;2023-09-18T11:00:21;95322.09;;;24.30;55.29
70684;BME280;58263;48.146;11.440;2023-09-18T11:03:08;95326.91;;;24.34;55.29
70684;BME280;58263;48.146;11.440;2023-09-18T11:05:35;95325.84;;;24.26;53.82
70684;BME280;58263;48.146;11.440;2023-09-18T11:08:29;95332.94;;;24.27;53.68
70684;BME280;58263;48.146;11.440;2023-09-18T11:10:59;95330.69;;;24.20;53.73
70684;BME280;58263;48.146;11.440;2023-09-18T11:13:30;95330.22;;;24.18;53.48
70684;BME280;58263;48.146;11.440;2023-09-18T11:16:02;95338.81;;;24.08;53.85
70684;BME280;58263;48.146;11.440;2023-09-18T11:18:37;95341.22;;;24.01;53.78
70684;BME280;58263;48.146;11.440;2023-09-18T11:21:10;95354.78;;;23.88;53.71
70684;BME280;58263;48.146;11.440;2023-09-18T11:23:39;95351.22;;;23.96;54.09
70684;BME280;58263;48.146;11.440;2023-09-18T11:26:09;95361.06;;;23.98;53.87
70684;BME280;58263;48.146;11.440;2023-09-18T11:28:35;95366.56;;;23.89;54.64
70684;BME280;58263;48.146;11.440;2023-09-18T11:31:02;95364.47;;;23.77;54.48
70684;BME280;58263;48.146;11.440;2023-09-18T11:33:41;95379.44;;;23.79;55.76
70684;BME280;58263;48.146;11.440;2023-09-18T11:36:34;95395.41;;;23.69;55.00
70684;BME280;58263;48.146;11.440;2023-09-18T11:39:00;95405.41;;;23.47;55.30
70684;BME280;58263;48.146;11.440;2023-09-18T11:41:32;95407.66;;;23.27;55.69
70684;BME280;58263;48.146;11.440;2023-09-18T11:46:32;95426.44;;;23.20;56.70
70684;BME280;58263;48.146;11.440;2023-09-18T11:48:58;95434.28;;;23.04;56.44
70684;BME280;58263;48.146;11.440;2023-09-18T11:51:24;95433.78;;;22.93;56.66
70684;BME280;58263;48.146;11.440;2023-09-18T11:53:54;95438.34;;;22.67;57.94
70684;BME280;58263;48.146;11.440;2023-09-18T11:56:20;95440.53;;;22.47;58.92
70684;BME280;58263;48.146;11.440;2023-09-18T11:58:47;95447.44;;;22.53;59.00
70684;BME280;58263;48.146;11.440;2023-09-18T12:01:13;95443.06;;;22.43;59.44
70684;BME280;58263;48.146;11.440;2023-09-18T12:03:41;95450.22;;;22.31;60.46
70684;BME280;58263;48.146;11.440;2023-09-18T12:06:06;95457.44;;;22.26;61.66
70684;BME280;58263;48.146;11.440;2023-09-18T12:08:34;95462.41;;;21.79;61.92
70684;BME280;58263;48.146;11.440;2023-09-18T12:11:04;95466.00;;;21.88;63.83
70684;BME280;58263;48.146;11.440;2023-09-18T12:13:30;95465.97;;;21.66;64.40
70684;BME280;58263;48.146;11.440;2023-09-18T12:16:03;95477.31;;;21.59;65.69
70684;BME280;58263;48.146;11.440;2023-09-18T12:18:30;95477.53;;;21.35;66.30
70684;BME280;58263;48.146;11.440;2023-09-18T12:20:56;95466.69;;;21.07;66.53
70684;BME280;58263;48.146;11.440;2023-09-18T12:23:24;95479.81;;;21.05;68.11
70684;BME280;58263;48.146;11.440;2023-09-18T12:25:50;95488.09;;;20.86;67.72
70684;BME280;58263;48.146;11.440;2023-09-18T12:28:22;95491.13;;;20.84;68.15
70684;BME280;58263;48.146;11.440;2023-09-18T12:30:47;95497.78;;;20.78;67.84
70684;BME280;58263;48.146;11.440;2023-09-18T12:33:13;95496.16;;;20.77;68.51
70684;BME280;58263;48.146;11.440;2023-09-18T12:35:41;95502.38;;;20.64;69.85
70684;BME280;58263;48.146;11.440;2023-09-18T12:38:15;95503.59;;;20.57;70.97
70684;BME280;58263;48.146;11.440;2023-09-18T12:40:40;95498.94;;;20.44;72.48
70684;BME280;58263;48.146;11.440;2023-09-18T12:43:06;95494.34;;;20.39;71.80
70684;BME280;58263;48.146;11.440;2023-09-18T12:45:33;95500.72;;;20.35;73.25
70684;BME280;58263;48.146;11.440;2023-09-18T12:48:00;95510.75;;;20.20;75.06
70684;BME280;58263;48.146;11.440;2023-09-18T12:50:26;95518.44;;;20.18;73.72
70684;BME280;58263;48.146;11.440;2023-09-18T12:52:51;95525.72;;;20.04;74.07
70684;BME280;58263;48.146;11.440;2023-09-18T12:55:23;95526.25;;;20.06;74.29